sensor_id;sensor_type;location;lat;lon;timestamp;temperature;humidity
74617;DHT22;63123;50.906;4.198;2023-02-13T00:00:52;16.70;49.90
74617;DHT22;63123;50.906;4.198;2023-02-13T00:03:17;16.70;49.60
74617;DHT22;63123;50.906;4.198;2023-02-13T00:05:43;16.70;49.70
74617;DHT22;63123;50.906;4.198;2023-02-13T00:08:09;16.70;49.70
74617;DHT22;63123;50.906;4.198;2023-02-13T00:10:34;16.70;49.60
74617;DHT22;63123;50.906;4.198;2023-02-13T00:13:00;16.70;49.70
74617;DHT22;63123;50.906;4.198;2023-02-13T00:15:26;16.70;49.50
74617;DHT22;63123;50.906;4.198;2023-02-13T00:17:51;16.70;49.50
74617;DHT22;63123;50.906;4.198;2023-02-13T00:20:17;16.70;49.50
74617;DHT22;63123;50.906;4.198;2023-02-13T00:22:43;16.70;49.50
74617;DHT22;63123;50.906;4.198;2023-02-13T00:25:08;16.70;49.50
74617;DHT22;63123;50.906;4.198;2023-02-13T00:27:34;16.70;49.40
74617;DHT22;63123;50.906;4.198;2023-02-13T00:30:00;16.70;49.40
74617;DHT22;63123;50.906;4.198;2023-02-13T00:32:25;16.70;49.50
74617;DHT22;63123;50.906;4.198;2023-02-13T00:34:51;16.70;49.50
74617;DHT22;63123;50.906;4.198;2023-02-13T00:37:16;16.70;49.50
74617;DHT22;63123;50.906;4.198;2023-02-13T00:39:42;16.70;49.40
74617;DHT22;63123;50.906;4.198;2023-02-13T00:42:07;16.70;50.00
74617;DHT22;63123;50.906;4.198;2023-02-13T00:44:33;16.70;49.40
74617;DHT22;63123;50.906;4.198;2023-02-13T00:46:59;16.70;49.50
74617;DHT22;63123;50.906;4.198;2023-02-13T00:49:24;16.70;49.50
74617;DHT22;63123;50.906;4.198;2023-02-13T00:51:50;16.70;49.50
74617;DHT22;63123;50.906;4.198;2023-02-13T00:54:16;16.70;49.40
74617;DHT22;63123;50.906;4.198;2023-02-13T00:56:41;16.70;49.50
74617;DHT22;63123;50.906;4.198;2023-02-13T00:59:07;16.70;49.40
74617;DHT22;63123;50.906;4.198;2023-02-13T01:01:32;16.70;49.30
74617;DHT22;63123;50.906;4.198;2023-02-13T01:03:58;16.70;49.20
74617;DHT22;63123;50.906;4.198;2023-02-13T01:06:24;16.70;49.30
74617;DHT22;63123;50.906;4.198;2023-02-13T01:08:49;16.70;49.30
74617;DHT22;63123;50.906;4.198;2023-02-13T01:11:15;16.70;49.30
74617;DHT22;63123;50.906;4.198;2023-02-13T01:13:40;16.70;49.30
74617;DHT22;63123;50.906;4.198;2023-02-13T01:16:06;16.70;49.30
74617;DHT22;63123;50.906;4.198;2023-02-13T01:18:32;16.70;49.90
74617;DHT22;63123;50.906;4.198;2023-02-13T01:21:03;16.80;49.30
74617;DHT22;63123;50.906;4.198;2023-02-13T01:23:34;16.70;49.40
74617;DHT22;63123;50.906;4.198;2023-02-13T01:26:00;16.70;49.20
74617;DHT22;63123;50.906;4.198;2023-02-13T01:28:27;16.70;49.40
74617;DHT22;63123;50.906;4.198;2023-02-13T01:30:54;16.70;49.20
74617;DHT22;63123;50.906;4.198;2023-02-13T01:33:25;16.80;49.20
74617;DHT22;63123;50.906;4.198;2023-02-13T01:35:51;16.70;49.10
74617;DHT22;63123;50.906;4.198;2023-02-13T01:38:17;16.70;49.20
74617;DHT22;63123;50.906;4.198;2023-02-13T01:41:00;16.70;49.20
74617;DHT22;63123;50.906;4.198;2023-02-13T01:43:50;16.70;49.00
74617;DHT22;63123;50.906;4.198;2023-02-13T01:48:57;16.70;49.20
74617;DHT22;63123;50.906;4.198;2023-02-13T01:51:27;16.70;49.10
74617;DHT22;63123;50.906;4.198;2023-02-13T01:54:05;16.70;49.10
74617;DHT22;63123;50.906;4.198;2023-02-13T01:56:38;16.70;49.10
74617;DHT22;63123;50.906;4.198;2023-02-13T01:59:16;16.70;49.10
74617;DHT22;63123;50.906;4.198;2023-02-13T02:01:43;16.70;49.00
74617;DHT22;63123;50.906;4.198;2023-02-13T02:04:10;16.70;49.00
74617;DHT22;63123;50.906;4.198;2023-02-13T02:06:41;16.70;49.20
74617;DHT22;63123;50.906;4.198;2023-02-13T02:09:15;16.70;49.10
74617;DHT22;63123;50.906;4.198;2023-02-13T02:14:30;16.70;49.00
74617;DHT22;63123;50.906;4.198;2023-02-13T02:16:56;16.70;48.90
74617;DHT22;63123;50.906;4.198;2023-02-13T02:19:41;16.70;48.90
74617;DHT22;63123;50.906;4.198;2023-02-13T02:22:29;16.70;49.00
74617;DHT22;63123;50.906;4.198;2023-02-13T02:30:44;16.70;48.80
74617;DHT22;63123;50.906;4.198;2023-02-13T02:41:24;16.70;49.20
74617;DHT22;63123;50.906;4.198;2023-02-13T02:47:24;16.70;48.80
74617;DHT22;63123;50.906;4.198;2023-02-13T02:55:52;16.70;48.80
74617;DHT22;63123;50.906;4.198;2023-02-13T02:58:36;16.70;48.60
74617;DHT22;63123;50.906;4.198;2023-02-13T03:01:24;16.70;48.60
74617;DHT22;63123;50.906;4.198;2023-02-13T03:04:27;16.70;48.90
74617;DHT22;63123;50.906;4.198;2023-02-13T03:07:15;16.70;48.80
74617;DHT22;63123;50.906;4.198;2023-02-13T03:09:46;16.70;48.90
74617;DHT22;63123;50.906;4.198;2023-02-13T03:12:45;16.70;48.80
74617;DHT22;63123;50.906;4.198;2023-02-13T03:15:31;16.70;48.80
74617;DHT22;63123;50.906;4.198;2023-02-13T03:17:58;16.70;48.70
74617;DHT22;63123;50.906;4.198;2023-02-13T03:20:52;16.70;48.70
74617;DHT22;63123;50.906;4.198;2023-02-13T03:23:58;16.70;48.70
74617;DHT22;63123;50.906;4.198;2023-02-13T03:26:43;16.70;48.50
74617;DHT22;63123;50.906;4.198;2023-02-13T03:29:24;16.70;48.80
74617;DHT22;63123;50.906;4.198;2023-02-13T03:32:19;16.70;48.70
74617;DHT22;63123;50.906;4.198;2023-02-13T03:34:53;16.70;48.70
74617;DHT22;63123;50.906;4.198;2023-02-13T03:37:43;16.70;48.70
74617;DHT22;63123;50.906;4.198;2023-02-13T03:43:41;16.70;48.60
74617;DHT22;63123;50.906;4.198;2023-02-13T03:46:10;16.70;48.60
74617;DHT22;63123;50.906;4.198;2023-02-13T03:48:38;16.80;48.60
74617;DHT22;63123;50.906;4.198;2023-02-13T03:51:42;16.70;48.50
74617;DHT22;63123;50.906;4.198;2023-02-13T03:54:21;16.70;48.30
74617;DHT22;63123;50.906;4.198;2023-02-13T03:57:08;16.70;48.50
74617;DHT22;63123;50.906;4.198;2023-02-13T03:59:54;16.70;48.50
74617;DHT22;63123;50.906;4.198;2023-02-13T04:02:24;16.70;48.40
74617;DHT22;63123;50.906;4.198;2023-02-13T04:05:02;16.70;48.50
74617;DHT22;63123;50.906;4.198;2023-02-13T04:07:30;16.70;48.60
74617;DHT22;63123;50.906;4.198;2023-02-13T04:10:09;16.70;48.50
74617;DHT22;63123;50.906;4.198;2023-02-13T04:15:49;16.70;48.40
74617;DHT22;63123;50.906;4.198;2023-02-13T04:18:27;16.70;47.80
74617;DHT22;63123;50.906;4.198;2023-02-13T04:20:54;16.70;48.30
74617;DHT22;63123;50.906;4.198;2023-02-13T04:23:19;16.70;48.20
74617;DHT22;63123;50.906;4.198;2023-02-13T04:25:48;16.70;48.30
74617;DHT22;63123;50.906;4.198;2023-02-13T04:28:14;16.70;48.30
74617;DHT22;63123;50.906;4.198;2023-02-13T04:30:40;16.70;48.20
74617;DHT22;63123;50.906;4.198;2023-02-13T04:33:06;16.70;48.20
74617;DHT22;63123;50.906;4.198;2023-02-13T04:35:31;16.70;48.20
74617;DHT22;63123;50.906;4.198;2023-02-13T04:37:57;16.70;48.10
74617;DHT22;63123;50.906;4.198;2023-02-13T04:40:23;16.70;48.10
74617;DHT22;63123;50.906;4.198;2023-02-13T04:42:48;16.70;48.20
74617;DHT22;63123;50.906;4.198;2023-02-13T04:45:15;16.70;48.00
74617;DHT22;63123;50.906;4.198;2023-02-13T04:47:41;16.70;48.10
74617;DHT22;63123;50.906;4.198;2023-02-13T04:50:07;16.70;48.20
74617;DHT22;63123;50.906;4.198;2023-02-13T04:52:33;16.70;48.20
74617;DHT22;63123;50.906;4.198;2023-02-13T04:54:58;16.70;48.20
74617;DHT22;63123;50.906;4.198;2023-02-13T04:57:24;16.70;48.20
74617;DHT22;63123;50.906;4.198;2023-02-13T04:59:49;16.70;48.10
74617;DHT22;63123;50.906;4.198;2023-02-13T05:02:15;16.70;48.10
74617;DHT22;63123;50.906;4.198;2023-02-13T05:04:40;16.70;48.20
74617;DHT22;63123;50.906;4.198;2023-02-13T05:07:06;16.70;48.10
74617;DHT22;63123;50.906;4.198;2023-02-13T05:09:31;16.70;48.20
74617;DHT22;63123;50.906;4.198;2023-02-13T05:11:57;16.70;48.10
74617;DHT22;63123;50.906;4.198;2023-02-13T05:14:23;16.70;48.10
74617;DHT22;63123;50.906;4.198;2023-02-13T05:16:48;16.70;48.10
74617;DHT22;63123;50.906;4.198;2023-02-13T05:19:15;16.70;48.00
74617;DHT22;63123;50.906;4.198;2023-02-13T05:21:40;16.70;48.10
74617;DHT22;63123;50.906;4.198;2023-02-13T05:24:25;16.70;48.10
74617;DHT22;63123;50.906;4.198;2023-02-13T05:26:50;16.70;48.10
74617;DHT22;63123;50.906;4.198;2023-02-13T05:29:16;16.70;48.00
74617;DHT22;63123;50.906;4.198;2023-02-13T05:31:49;16.70;48.10
74617;DHT22;63123;50.906;4.198;2023-02-13T05:34:15;16.70;48.20
74617;DHT22;63123;50.906;4.198;2023-02-13T05:36:41;16.70;48.20
74617;DHT22;63123;50.906;4.198;2023-02-13T05:39:06;16.70;48.00
74617;DHT22;63123;50.906;4.198;2023-02-13T05:41:33;16.70;48.10
74617;DHT22;63123;50.906;4.198;2023-02-13T05:43:58;16.70;48.10
74617;DHT22;63123;50.906;4.198;2023-02-13T05:46:25;16.70;48.20
74617;DHT22;63123;50.906;4.198;2023-02-13T05:48:51;16.70;48.10
74617;DHT22;63123;50.906;4.198;2023-02-13T05:51:18;16.70;48.10
74617;DHT22;63123;50.906;4.198;2023-02-13T05:53:43;16.70;48.10
74617;DHT22;63123;50.906;4.198;2023-02-13T05:56:09;16.70;48.20
74617;DHT22;63123;50.906;4.198;2023-02-13T05:58:36;16.70;48.10
74617;DHT22;63123;50.906;4.198;2023-02-13T06:01:01;16.70;47.90
74617;DHT22;63123;50.906;4.198;2023-02-13T06:03:28;16.70;48.10
74617;DHT22;63123;50.906;4.198;2023-02-13T06:05:54;16.70;48.10
74617;DHT22;63123;50.906;4.198;2023-02-13T06:08:21;16.70;48.10
74617;DHT22;63123;50.906;4.198;2023-02-13T06:10:47;16.70;48.20
74617;DHT22;63123;50.906;4.198;2023-02-13T06:13:13;16.70;48.00
74617;DHT22;63123;50.906;4.198;2023-02-13T06:15:38;16.70;48.20
74617;DHT22;63123;50.906;4.198;2023-02-13T06:18:04;16.70;48.10
74617;DHT22;63123;50.906;4.198;2023-02-13T06:20:30;16.70;48.20
74617;DHT22;63123;50.906;4.198;2023-02-13T06:22:55;16.70;48.20
74617;DHT22;63123;50.906;4.198;2023-02-13T06:25:21;16.70;48.70
74617;DHT22;63123;50.906;4.198;2023-02-13T06:27:47;16.70;48.10
74617;DHT22;63123;50.906;4.198;2023-02-13T06:30:14;16.70;48.10
74617;DHT22;63123;50.906;4.198;2023-02-13T06:32:39;16.70;48.00
74617;DHT22;63123;50.906;4.198;2023-02-13T06:35:05;16.70;48.10
74617;DHT22;63123;50.906;4.198;2023-02-13T06:37:32;16.70;48.20
74617;DHT22;63123;50.906;4.198;2023-02-13T06:39:57;16.70;48.10
74617;DHT22;63123;50.906;4.198;2023-02-13T06:42:23;16.70;48.30
74617;DHT22;63123;50.906;4.198;2023-02-13T06:44:49;16.70;48.10
74617;DHT22;63123;50.906;4.198;2023-02-13T06:47:14;16.70;48.10
74617;DHT22;63123;50.906;4.198;2023-02-13T06:49:40;16.70;48.20
74617;DHT22;63123;50.906;4.198;2023-02-13T06:52:06;16.70;48.20
74617;DHT22;63123;50.906;4.198;2023-02-13T06:54:31;16.70;48.20
74617;DHT22;63123;50.906;4.198;2023-02-13T06:56:57;16.70;48.30
74617;DHT22;63123;50.906;4.198;2023-02-13T06:59:22;16.70;48.20
74617;DHT22;63123;50.906;4.198;2023-02-13T07:01:48;16.70;48.40
74617;DHT22;63123;50.906;4.198;2023-02-13T07:04:14;16.70;48.40
74617;DHT22;63123;50.906;4.198;2023-02-13T07:06:39;16.70;48.30
74617;DHT22;63123;50.906;4.198;2023-02-13T07:09:05;16.70;48.20
74617;DHT22;63123;50.906;4.198;2023-02-13T07:11:31;16.70;48.30
74617;DHT22;63123;50.906;4.198;2023-02-13T07:13:56;16.70;48.40
74617;DHT22;63123;50.906;4.198;2023-02-13T07:16:22;16.70;48.20
74617;DHT22;63123;50.906;4.198;2023-02-13T07:18:48;16.70;48.30
74617;DHT22;63123;50.906;4.198;2023-02-13T07:21:13;16.70;48.20
74617;DHT22;63123;50.906;4.198;2023-02-13T07:23:39;16.70;48.20
74617;DHT22;63123;50.906;4.198;2023-02-13T07:26:05;16.70;48.20
74617;DHT22;63123;50.906;4.198;2023-02-13T07:28:31;16.70;48.20
74617;DHT22;63123;50.906;4.198;2023-02-13T07:30:56;16.70;48.20
74617;DHT22;63123;50.906;4.198;2023-02-13T07:33:22;16.70;48.20
74617;DHT22;63123;50.906;4.198;2023-02-13T07:35:49;16.70;48.20
74617;DHT22;63123;50.906;4.198;2023-02-13T07:38:16;16.70;48.10
74617;DHT22;63123;50.906;4.198;2023-02-13T07:40:42;16.70;48.10
74617;DHT22;63123;50.906;4.198;2023-02-13T07:43:08;16.70;48.00
74617;DHT22;63123;50.906;4.198;2023-02-13T07:45:34;16.70;48.20
74617;DHT22;63123;50.906;4.198;2023-02-13T07:47:59;16.70;48.20
74617;DHT22;63123;50.906;4.198;2023-02-13T07:50:25;16.70;48.10
74617;DHT22;63123;50.906;4.198;2023-02-13T07:52:56;16.70;48.20
74617;DHT22;63123;50.906;4.198;2023-02-13T07:55:21;16.70;48.30
74617;DHT22;63123;50.906;4.198;2023-02-13T07:57:48;16.70;48.20
74617;DHT22;63123;50.906;4.198;2023-02-13T08:00:14;16.70;48.30
74617;DHT22;63123;50.906;4.198;2023-02-13T08:02:40;16.70;48.30
74617;DHT22;63123;50.906;4.198;2023-02-13T08:05:06;16.70;48.30
74617;DHT22;63123;50.906;4.198;2023-02-13T08:07:32;16.70;48.20
74617;DHT22;63123;50.906;4.198;2023-02-13T08:09:57;16.70;48.40
74617;DHT22;63123;50.906;4.198;2023-02-13T08:12:41;16.70;48.30
74617;DHT22;63123;50.906;4.198;2023-02-13T08:15:12;16.70;48.40
74617;DHT22;63123;50.906;4.198;2023-02-13T08:17:37;16.80;48.40
74617;DHT22;63123;50.906;4.198;2023-02-13T08:20:04;16.80;48.40
74617;DHT22;63123;50.906;4.198;2023-02-13T08:22:32;16.70;48.30
74617;DHT22;63123;50.906;4.198;2023-02-13T08:24:57;16.70;48.30
74617;DHT22;63123;50.906;4.198;2023-02-13T08:27:23;16.70;48.30
74617;DHT22;63123;50.906;4.198;2023-02-13T08:29:49;16.80;48.50
74617;DHT22;63123;50.906;4.198;2023-02-13T08:32:15;16.80;48.50
74617;DHT22;63123;50.906;4.198;2023-02-13T08:34:41;16.80;48.70
74617;DHT22;63123;50.906;4.198;2023-02-13T08:37:06;16.80;49.20
74617;DHT22;63123;50.906;4.198;2023-02-13T08:39:32;16.80;49.30
74617;DHT22;63123;50.906;4.198;2023-02-13T08:41:58;16.80;49.30
74617;DHT22;63123;50.906;4.198;2023-02-13T08:44:23;16.80;49.20
74617;DHT22;63123;50.906;4.198;2023-02-13T08:46:49;16.80;49.40
74617;DHT22;63123;50.906;4.198;2023-02-13T08:49:14;16.80;49.30
74617;DHT22;63123;50.906;4.198;2023-02-13T08:51:40;16.80;49.40
74617;DHT22;63123;50.906;4.198;2023-02-13T08:54:06;16.80;49.60
74617;DHT22;63123;50.906;4.198;2023-02-13T08:56:31;16.80;49.50
74617;DHT22;63123;50.906;4.198;2023-02-13T08:58:57;16.80;49.50
74617;DHT22;63123;50.906;4.198;2023-02-13T09:01:23;16.80;49.40
74617;DHT22;63123;50.906;4.198;2023-02-13T09:03:49;16.80;49.50
74617;DHT22;63123;50.906;4.198;2023-02-13T09:06:14;16.80;49.40
74617;DHT22;63123;50.906;4.198;2023-02-13T09:08:40;16.80;49.40
74617;DHT22;63123;50.906;4.198;2023-02-13T09:11:05;16.80;49.50
74617;DHT22;63123;50.906;4.198;2023-02-13T09:13:32;16.80;49.40
74617;DHT22;63123;50.906;4.198;2023-02-13T09:16:04;16.80;49.50
74617;DHT22;63123;50.906;4.198;2023-02-13T09:18:30;16.80;49.50
74617;DHT22;63123;50.906;4.198;2023-02-13T09:21:07;16.90;49.50
74617;DHT22;63123;50.906;4.198;2023-02-13T09:23:35;16.80;49.40
74617;DHT22;63123;50.906;4.198;2023-02-13T09:26:02;16.80;49.50
74617;DHT22;63123;50.906;4.198;2023-02-13T09:28:29;16.80;49.50
74617;DHT22;63123;50.906;4.198;2023-02-13T09:30:55;16.80;49.60
74617;DHT22;63123;50.906;4.198;2023-02-13T09:33:21;16.90;49.40
74617;DHT22;63123;50.906;4.198;2023-02-13T09:35:47;16.90;49.50
74617;DHT22;63123;50.906;4.198;2023-02-13T09:38:12;16.90;49.50
74617;DHT22;63123;50.906;4.198;2023-02-13T09:40:50;16.90;49.50
74617;DHT22;63123;50.906;4.198;2023-02-13T09:46:00;16.90;49.50
74617;DHT22;63123;50.906;4.198;2023-02-13T09:48:32;16.90;49.50
74617;DHT22;63123;50.906;4.198;2023-02-13T09:50:59;16.90;49.50
74617;DHT22;63123;50.906;4.198;2023-02-13T09:53:26;16.90;49.50
74617;DHT22;63123;50.906;4.198;2023-02-13T09:56:26;16.90;49.50
74617;DHT22;63123;50.906;4.198;2023-02-13T09:59:03;16.90;49.40
74617;DHT22;63123;50.906;4.198;2023-02-13T10:01:34;16.90;49.50
74617;DHT22;63123;50.906;4.198;2023-02-13T10:06:47;16.90;49.40
74617;DHT22;63123;50.906;4.198;2023-02-13T10:18:13;16.90;49.60
74617;DHT22;63123;50.906;4.198;2023-02-13T10:23:27;16.90;49.50
74617;DHT22;63123;50.906;4.198;2023-02-13T10:25:58;16.90;49.30
74617;DHT22;63123;50.906;4.198;2023-02-13T10:28:39;16.90;49.60
74617;DHT22;63123;50.906;4.198;2023-02-13T10:31:09;16.90;49.50
74617;DHT22;63123;50.906;4.198;2023-02-13T10:33:52;16.90;49.50
74617;DHT22;63123;50.906;4.198;2023-02-13T10:36:29;16.90;49.50
74617;DHT22;63123;50.906;4.198;2023-02-13T10:39:14;16.90;49.60
74617;DHT22;63123;50.906;4.198;2023-02-13T10:41:51;16.90;49.60
74617;DHT22;63123;50.906;4.198;2023-02-13T10:44:39;16.90;49.60
74617;DHT22;63123;50.906;4.198;2023-02-13T10:52:38;17.00;49.60
74617;DHT22;63123;50.906;4.198;2023-02-13T11:03:03;17.00;49.70
74617;DHT22;63123;50.906;4.198;2023-02-13T11:05:38;16.90;49.30
74617;DHT22;63123;50.906;4.198;2023-02-13T11:08:17;16.90;49.50
74617;DHT22;63123;50.906;4.198;2023-02-13T11:10:43;16.90;49.40
74617;DHT22;63123;50.906;4.198;2023-02-13T11:13:35;16.90;49.40
74617;DHT22;63123;50.906;4.198;2023-02-13T11:16:07;16.90;49.30
74617;DHT22;63123;50.906;4.198;2023-02-13T11:18:42;16.90;49.60
74617;DHT22;63123;50.906;4.198;2023-02-13T11:21:20;16.90;49.50
74617;DHT22;63123;50.906;4.198;2023-02-13T11:23:50;16.90;49.50
74617;DHT22;63123;50.906;4.198;2023-02-13T11:26:28;17.00;49.60
74617;DHT22;63123;50.906;4.198;2023-02-13T11:29:03;16.90;50.10
74617;DHT22;63123;50.906;4.198;2023-02-13T11:31:33;16.90;49.50
74617;DHT22;63123;50.906;4.198;2023-02-13T11:34:26;16.90;49.60
74617;DHT22;63123;50.906;4.198;2023-02-13T11:37:06;17.00;49.50
74617;DHT22;63123;50.906;4.198;2023-02-13T11:39:38;16.90;49.50
74617;DHT22;63123;50.906;4.198;2023-02-13T11:42:15;17.00;49.60
74617;DHT22;63123;50.906;4.198;2023-02-13T11:44:42;17.00;49.60
74617;DHT22;63123;50.906;4.198;2023-02-13T11:47:12;16.90;49.50
74617;DHT22;63123;50.906;4.198;2023-02-13T11:49:44;17.00;49.60
74617;DHT22;63123;50.906;4.198;2023-02-13T11:52:31;17.00;49.60
74617;DHT22;63123;50.906;4.198;2023-02-13T11:55:01;17.00;49.40
74617;DHT22;63123;50.906;4.198;2023-02-13T11:57:32;17.00;49.50
74617;DHT22;63123;50.906;4.198;2023-02-13T12:00:00;17.00;49.70
74617;DHT22;63123;50.906;4.198;2023-02-13T12:02:42;17.00;49.70
74617;DHT22;63123;50.906;4.198;2023-02-13T12:05:17;17.00;49.70
74617;DHT22;63123;50.906;4.198;2023-02-13T12:07:44;17.00;49.60
74617;DHT22;63123;50.906;4.198;2023-02-13T12:10:24;17.00;49.60
74617;DHT22;63123;50.906;4.198;2023-02-13T12:13:08;17.00;49.50
74617;DHT22;63123;50.906;4.198;2023-02-13T12:15:38;17.00;49.60
74617;DHT22;63123;50.906;4.198;2023-02-13T12:18:27;17.00;49.70
74617;DHT22;63123;50.906;4.198;2023-02-13T12:24:02;17.00;49.70
74617;DHT22;63123;50.906;4.198;2023-02-13T12:26:30;17.00;49.60
74617;DHT22;63123;50.906;4.198;2023-02-13T12:29:42;17.10;49.70
74617;DHT22;63123;50.906;4.198;2023-02-13T12:43:36;17.00;49.60
74617;DHT22;63123;50.906;4.198;2023-02-13T12:46:36;17.00;49.50
74617;DHT22;63123;50.906;4.198;2023-02-13T12:49:34;17.00;49.60
74617;DHT22;63123;50.906;4.198;2023-02-13T13:00:35;17.00;49.60
74617;DHT22;63123;50.906;4.198;2023-02-13T13:04:11;17.10;49.60
74617;DHT22;63123;50.906;4.198;2023-02-13T13:15:31;17.00;49.60
74617;DHT22;63123;50.906;4.198;2023-02-13T13:18:15;17.00;49.60
74617;DHT22;63123;50.906;4.198;2023-02-13T13:21:24;17.00;49.60
74617;DHT22;63123;50.906;4.198;2023-02-13T13:24:21;17.00;49.70
74617;DHT22;63123;50.906;4.198;2023-02-13T13:26:49;17.10;49.60
74617;DHT22;63123;50.906;4.198;2023-02-13T13:29:22;17.00;49.80
74617;DHT22;63123;50.906;4.198;2023-02-13T13:32:01;17.00;49.80
74617;DHT22;63123;50.906;4.198;2023-02-13T13:34:29;17.00;49.80
74617;DHT22;63123;50.906;4.198;2023-02-13T13:37:04;17.00;49.80
74617;DHT22;63123;50.906;4.198;2023-02-13T13:40:51;17.00;49.70
74617;DHT22;63123;50.906;4.198;2023-02-13T13:42:55;17.00;49.60
74617;DHT22;63123;50.906;4.198;2023-02-13T13:50:33;17.00;49.70
74617;DHT22;63123;50.906;4.198;2023-02-13T13:53:16;17.00;49.80
74617;DHT22;63123;50.906;4.198;2023-02-13T14:03:43;17.00;49.80
74617;DHT22;63123;50.906;4.198;2023-02-13T14:06:17;17.00;49.90
74617;DHT22;63123;50.906;4.198;2023-02-13T14:11:41;17.10;49.90
74617;DHT22;63123;50.906;4.198;2023-02-13T14:16:58;17.00;49.70
74617;DHT22;63123;50.906;4.198;2023-02-13T14:19:33;17.00;50.10
74617;DHT22;63123;50.906;4.198;2023-02-13T14:24:55;17.00;49.80
74617;DHT22;63123;50.906;4.198;2023-02-13T14:27:33;17.00;49.90
74617;DHT22;63123;50.906;4.198;2023-02-13T14:30:00;17.00;49.90
74617;DHT22;63123;50.906;4.198;2023-02-13T14:32:36;17.00;49.70
74617;DHT22;63123;50.906;4.198;2023-02-13T14:35:19;17.10;49.70
74617;DHT22;63123;50.906;4.198;2023-02-13T14:37:50;17.10;49.80
74617;DHT22;63123;50.906;4.198;2023-02-13T14:42:52;17.00;49.70
74617;DHT22;63123;50.906;4.198;2023-02-13T14:45:23;17.00;49.70
74617;DHT22;63123;50.906;4.198;2023-02-13T14:47:53;17.00;49.70
74617;DHT22;63123;50.906;4.198;2023-02-13T14:50:27;17.00;49.80
74617;DHT22;63123;50.906;4.198;2023-02-13T14:52:54;17.10;50.00
74617;DHT22;63123;50.906;4.198;2023-02-13T14:55:34;17.00;50.00
74617;DHT22;63123;50.906;4.198;2023-02-13T14:58:30;17.00;49.80
74617;DHT22;63123;50.906;4.198;2023-02-13T15:01:10;17.00;50.20
74617;DHT22;63123;50.906;4.198;2023-02-13T15:03:46;17.00;49.90
74617;DHT22;63123;50.906;4.198;2023-02-13T15:06:51;17.00;50.00
74617;DHT22;63123;50.906;4.198;2023-02-13T15:11:53;17.00;49.90
74617;DHT22;63123;50.906;4.198;2023-02-13T15:14:33;17.10;50.00
74617;DHT22;63123;50.906;4.198;2023-02-13T15:17:22;17.00;49.90
74617;DHT22;63123;50.906;4.198;2023-02-13T15:20:02;17.00;49.90
74617;DHT22;63123;50.906;4.198;2023-02-13T15:22:35;17.00;50.00
74617;DHT22;63123;50.906;4.198;2023-02-13T15:25:01;17.00;50.10
74617;DHT22;63123;50.906;4.198;2023-02-13T15:27:29;17.00;50.00
74617;DHT22;63123;50.906;4.198;2023-02-13T15:30:02;17.00;50.20
74617;DHT22;63123;50.906;4.198;2023-02-13T15:32:35;17.00;50.00
74617;DHT22;63123;50.906;4.198;2023-02-13T15:35:30;17.00;50.10
74617;DHT22;63123;50.906;4.198;2023-02-13T15:37:56;17.00;49.90
74617;DHT22;63123;50.906;4.198;2023-02-13T15:40:31;17.00;50.10
74617;DHT22;63123;50.906;4.198;2023-02-13T15:42:58;17.00;50.10
74617;DHT22;63123;50.906;4.198;2023-02-13T15:45:27;17.00;50.30
74617;DHT22;63123;50.906;4.198;2023-02-13T15:47:54;17.00;50.20
74617;DHT22;63123;50.906;4.198;2023-02-13T15:50:30;17.00;50.20
74617;DHT22;63123;50.906;4.198;2023-02-13T15:52:57;17.00;50.20
74617;DHT22;63123;50.906;4.198;2023-02-13T15:55:26;17.00;50.40
74617;DHT22;63123;50.906;4.198;2023-02-13T15:57:54;17.00;50.20
74617;DHT22;63123;50.906;4.198;2023-02-13T16:00:40;17.00;50.30
74617;DHT22;63123;50.906;4.198;2023-02-13T16:03:14;17.00;50.00
74617;DHT22;63123;50.906;4.198;2023-02-13T16:05:41;17.00;50.20
74617;DHT22;63123;50.906;4.198;2023-02-13T16:08:28;17.00;50.40
74617;DHT22;63123;50.906;4.198;2023-02-13T16:11:21;17.00;50.10
74617;DHT22;63123;50.906;4.198;2023-02-13T16:16:30;17.00;50.30
74617;DHT22;63123;50.906;4.198;2023-02-13T16:18:57;17.00;50.40
74617;DHT22;63123;50.906;4.198;2023-02-13T16:21:25;17.00;50.40
74617;DHT22;63123;50.906;4.198;2023-02-13T16:23:56;17.00;50.40
74617;DHT22;63123;50.906;4.198;2023-02-13T16:26:23;17.00;50.40
74617;DHT22;63123;50.906;4.198;2023-02-13T16:28:49;17.00;50.30
74617;DHT22;63123;50.906;4.198;2023-02-13T16:31:15;17.00;50.40
74617;DHT22;63123;50.906;4.198;2023-02-13T16:33:43;17.00;50.60
74617;DHT22;63123;50.906;4.198;2023-02-13T16:38:35;17.00;50.40
74617;DHT22;63123;50.906;4.198;2023-02-13T16:43:46;16.90;51.10
74617;DHT22;63123;50.906;4.198;2023-02-13T16:54:21;17.00;50.40
74617;DHT22;63123;50.906;4.198;2023-02-13T16:56:55;17.00;50.60
74617;DHT22;63123;50.906;4.198;2023-02-13T17:04:46;17.00;50.40
74617;DHT22;63123;50.906;4.198;2023-02-13T17:07:37;17.00;50.60
74617;DHT22;63123;50.906;4.198;2023-02-13T17:10:04;17.00;50.50
74617;DHT22;63123;50.906;4.198;2023-02-13T17:12:35;17.00;50.60
74617;DHT22;63123;50.906;4.198;2023-02-13T17:15:03;16.90;50.50
74617;DHT22;63123;50.906;4.198;2023-02-13T17:17:31;17.00;50.60
74617;DHT22;63123;50.906;4.198;2023-02-13T17:19:57;16.90;50.50
74617;DHT22;63123;50.906;4.198;2023-02-13T17:22:36;17.00;50.70
74617;DHT22;63123;50.906;4.198;2023-02-13T17:25:05;16.90;50.60
74617;DHT22;63123;50.906;4.198;2023-02-13T17:27:32;16.90;50.60
74617;DHT22;63123;50.906;4.198;2023-02-13T17:29:57;17.00;50.70
74617;DHT22;63123;50.906;4.198;2023-02-13T17:32:25;16.90;50.80
74617;DHT22;63123;50.906;4.198;2023-02-13T17:34:52;17.00;50.70
74617;DHT22;63123;50.906;4.198;2023-02-13T17:37:20;17.00;50.70
74617;DHT22;63123;50.906;4.198;2023-02-13T17:39:46;16.90;50.80
74617;DHT22;63123;50.906;4.198;2023-02-13T17:42:18;17.00;50.70
74617;DHT22;63123;50.906;4.198;2023-02-13T17:44:44;16.90;50.60
74617;DHT22;63123;50.906;4.198;2023-02-13T17:47:10;16.90;50.70
74617;DHT22;63123;50.906;4.198;2023-02-13T17:49:36;17.00;50.70
74617;DHT22;63123;50.906;4.198;2023-02-13T17:52:01;17.00;50.70
74617;DHT22;63123;50.906;4.198;2023-02-13T17:54:28;16.90;50.70
74617;DHT22;63123;50.906;4.198;2023-02-13T17:56:53;16.90;50.70
74617;DHT22;63123;50.906;4.198;2023-02-13T17:59:19;17.00;50.60
74617;DHT22;63123;50.906;4.198;2023-02-13T18:01:45;16.90;50.60
74617;DHT22;63123;50.906;4.198;2023-02-13T18:04:10;16.90;50.70
74617;DHT22;63123;50.906;4.198;2023-02-13T18:06:36;16.90;50.70
74617;DHT22;63123;50.906;4.198;2023-02-13T18:09:01;16.90;50.70
74617;DHT22;63123;50.906;4.198;2023-02-13T18:11:27;16.90;50.70
74617;DHT22;63123;50.906;4.198;2023-02-13T18:13:52;16.90;50.70
74617;DHT22;63123;50.906;4.198;2023-02-13T18:16:18;16.90;50.70
74617;DHT22;63123;50.906;4.198;2023-02-13T18:18:46;16.90;50.70
74617;DHT22;63123;50.906;4.198;2023-02-13T18:21:12;17.00;50.70